Time;durP1;ratioP1;P1;durP2;ratioP2;P2;SDS_P1;SDS_P2;PMS_P1;PMS_P2;Temp;Humidity;BMP_temperature;BMP_pressure;BME280_temperature;BME280_humidity;BME280_pressure;Samples;Min_cycle;Max_cycle;Signal;HPM_P1;HPM_P2
2022/05/22 00:01:12;;;;;;;3.73;1.93;;;;;;;10.44;69.72;94104.81;5090017;28;20077;-50
2022/05/22 00:03:39;;;;;;;5.07;2.20;;;;;;;10.44;69.74;94115.81;5089638;28;20050;-53
2022/05/22 00:06:06;;;;;;;4.82;2.13;;;;;;;10.33;70.06;94111.22;5089956;28;20506;-52
2022/05/22 00:08:33;;;;;;;4.43;1.90;;;;;;;10.01;70.97;94106.03;5089091;28;20048;-52
2022/05/22 00:10:59;;;;;;;4.18;2.15;;;;;;;10.08;70.84;94105.97;5089925;28;20036;-52
2022/05/22 00:13:26;;;;;;;3.53;1.90;;;;;;;10.12;71.02;94109.47;5089016;28;20063;-56
2022/05/22 00:18:38;;;;;;;4.88;2.10;;;;;;;9.96;71.59;94090.03;5089404;28;20495;-48
2022/05/22 00:21:05;;;;;;;3.50;1.98;;;;;;;10.03;71.16;94091.94;5089378;28;20507;-51
2022/05/22 00:23:33;;;;;;;3.60;2.20;;;;;;;10.11;70.95;94088.69;5084116;28;20044;-53
2022/05/22 00:26:00;;;;;;;4.47;2.10;;;;;;;10.04;71.11;94096.22;5069397;28;20044;-54
2022/05/22 00:28:26;;;;;;;3.70;2.00;;;;;;;10.05;70.99;94098.56;5069038;28;20059;-50
2022/05/22 00:30:53;;;;;;;4.20;1.85;;;;;;;9.74;72.98;94103.97;5069652;28;20047;-49
2022/05/22 00:33:20;;;;;;;4.15;2.25;;;;;;;9.52;73.61;94097.88;5069466;28;20041;-50
2022/05/22 00:35:46;;;;;;;4.47;2.15;;;;;;;9.62;73.46;94098.19;5068841;28;20028;-50
2022/05/22 00:38:13;;;;;;;5.10;2.00;;;;;;;9.70;72.86;94096.94;5069320;28;20062;-49
2022/05/22 00:40:40;;;;;;;3.85;2.10;;;;;;;9.71;72.78;94093.78;5068874;28;20048;-49
2022/05/22 00:43:42;;;;;;;3.75;1.80;;;;;;;9.77;72.31;94094.91;5069070;28;20048;-54
2022/05/22 00:46:11;;;;;;;3.88;1.83;;;;;;;9.81;72.14;94097.63;5068438;28;20860;-49
2022/05/22 00:48:40;;;;;;;3.70;2.05;;;;;;;9.82;72.16;94099.19;5067473;28;20044;-47
2022/05/22 00:51:33;;;;;;;4.43;2.20;;;;;;;9.82;71.71;94099.19;5069312;28;20055;-48
2022/05/22 00:54:22;;;;;;;4.10;1.75;;;;;;;9.79;72.29;94097.25;5072028;28;20039;-51
2022/05/22 00:56:56;;;;;;;7.63;2.25;;;;;;;9.80;72.44;94107.03;5092096;28;20582;-50
2022/05/22 00:59:29;;;;;;;3.85;2.00;;;;;;;9.81;72.03;94103.09;5092524;28;20066;-49
2022/05/22 01:01:58;;;;;;;6.13;2.25;;;;;;;9.80;72.12;94107.81;5092954;28;20036;-49
2022/05/22 01:04:30;;;;;;;3.80;2.20;;;;;;;9.78;72.31;94107.44;5092077;28;20040;-48
2022/05/22 01:06:57;;;;;;;4.03;2.15;;;;;;;9.74;72.07;94097.69;5093003;28;20044;-48
2022/05/22 01:09:24;;;;;;;5.75;2.10;;;;;;;9.75;72.30;94099.25;5092196;28;20043;-51
2022/05/22 01:11:55;;;;;;;4.35;2.30;;;;;;;9.75;72.15;94099.25;5092849;28;20040;-48
2022/05/22 01:14:22;;;;;;;3.80;2.20;;;;;;;9.68;72.60;94089.13;5092782;28;20040;-51
2022/05/22 01:16:50;;;;;;;3.97;2.20;;;;;;;9.52;73.78;94091.63;5091915;28;20875;-55
2022/05/22 01:19:23;;;;;;;7.32;2.53;;;;;;;9.31;73.95;94089.81;5092312;28;20075;-60
2022/05/22 01:21:59;;;;;;;6.57;2.65;;;;;;;9.28;74.34;94087.91;5090187;28;20032;-55
2022/05/22 01:24:26;;;;;;;4.50;2.55;;;;;;;8.95;75.89;94079.91;5079921;28;20048;-50
2022/05/22 01:26:56;;;;;;;4.95;2.40;;;;;;;9.02;75.84;94073.63;5072438;28;20043;-53
2022/05/22 01:29:23;;;;;;;5.03;2.23;;;;;;;9.14;75.32;94080.56;5071930;28;20489;-52
2022/05/22 01:31:50;;;;;;;4.35;2.47;;;;;;;9.20;75.19;94079.72;5072142;28;20405;-56
2022/05/22 01:34:17;;;;;;;6.18;2.38;;;;;;;9.27;74.65;94076.16;5072249;28;20055;-53
2022/05/22 01:36:44;;;;;;;5.00;2.28;;;;;;;9.27;74.66;94075.38;5071926;28;20067;-47
2022/05/22 01:39:11;;;;;;;4.85;2.35;;;;;;;9.28;74.64;94075.00;5072172;28;20052;-50
2022/05/22 01:41:38;;;;;;;4.10;2.30;;;;;;;9.19;74.73;94078.19;5071405;28;20079;-50
2022/05/22 01:44:06;;;;;;;4.50;2.83;;;;;;;9.17;75.15;94071.53;5072151;28;20063;-54
2022/05/22 01:46:33;;;;;;;6.85;4.05;;;;;;;9.03;75.45;94069.69;5071255;28;20055;-56
2022/05/22 01:48:59;;;;;;;4.75;2.50;;;;;;;8.90;76.92;94083.06;5072077;28;20044;-49
2022/05/22 01:51:27;;;;;;;4.85;2.53;;;;;;;8.99;76.25;94071.66;5070964;28;20052;-48
2022/05/22 01:53:53;;;;;;;5.13;2.53;;;;;;;8.95;75.64;94065.44;5077295;28;20044;-50
2022/05/22 01:56:21;;;;;;;3.83;2.20;;;;;;;8.89;76.83;94070.56;5091627;28;20120;-50
2022/05/22 01:58:47;;;;;;;6.90;2.53;;;;;;;8.95;76.49;94073.66;5091035;28;20676;-49
2022/05/22 02:01:14;;;;;;;5.07;2.05;;;;;;;8.98;76.48;94075.59;5092137;28;20056;-59
2022/05/22 02:03:41;;;;;;;4.35;2.28;;;;;;;8.96;76.36;94070.50;5091296;28;20040;-51
2022/05/22 02:06:07;;;;;;;4.97;2.13;;;;;;;8.98;76.29;94067.38;5091129;28;20036;-48
2022/05/22 02:08:34;;;;;;;4.68;2.15;;;;;;;8.96;75.91;94059.56;5091145;28;20059;-50
2022/05/22 02:11:04;;;;;;;4.28;2.30;;;;;;;8.82;76.57;94062.41;5091613;28;20070;-55
2022/05/22 02:13:34;;;;;;;4.10;2.20;;;;;;;8.87;76.44;94055.72;5090798;28;20430;-49
2022/05/22 02:16:01;;;;;;;6.85;3.40;;;;;;;8.91;77.14;94061.94;5091772;28;20032;-51
2022/05/22 02:18:28;;;;;;;6.57;3.10;;;;;;;8.97;76.58;94068.56;5090704;28;20048;-48
2022/05/22 02:20:56;;;;;;;6.43;2.80;;;;;;;8.99;76.18;94063.44;5091414;28;20052;-50
2022/05/22 02:23:22;;;;;;;4.15;2.40;;;;;;;8.78;75.66;94056.94;5087614;28;20046;-52
2022/05/22 02:25:52;;;;;;;4.32;2.22;;;;;;;8.62;76.47;94056.66;5071536;28;20511;-50
2022/05/22 02:28:20;;;;;;;4.22;2.40;;;;;;;8.67;76.64;94053.50;5071212;28;20048;-51
2022/05/22 02:30:54;;;;;;;4.50;2.40;;;;;;;8.55;76.88;94053.94;5070751;28;20040;-53
2022/05/22 02:33:21;;;;;;;5.82;2.10;;;;;;;8.58;77.08;94036.75;5071260;28;20049;-56
2022/05/22 02:35:50;;;;;;;4.65;2.20;;;;;;;8.59;77.17;94038.28;5069756;28;21712;-50
2022/05/22 02:38:18;;;;;;;4.80;2.20;;;;;;;8.64;76.95;94029.69;5070990;28;20057;-49
2022/05/22 02:40:45;;;;;;;4.90;2.47;;;;;;;8.61;77.11;94038.66;5070164;28;20048;-50
2022/05/22 02:43:12;;;;;;;5.17;2.70;;;;;;;8.68;77.04;94018.72;5070861;28;20049;-54
2022/05/22 02:45:40;;;;;;;4.38;2.50;;;;;;;8.66;77.63;94021.84;5068810;28;20527;-50
2022/05/22 02:48:08;;;;;;;48.70;26.05;;;;;;;8.51;78.47;94014.88;5070681;28;20615;-47
2022/05/22 02:50:37;;;;;;;6.45;3.72;;;;;;;8.46;78.06;94005.16;5069897;28;20703;-51
2022/05/22 02:53:05;;;;;;;4.60;2.70;;;;;;;8.44;78.71;94017.69;5071592;28;20445;-51
2022/05/22 02:55:32;;;;;;;4.60;2.60;;;;;;;8.55;78.20;94010.19;5088175;28;20054;-53
2022/05/22 02:57:58;;;;;;;5.97;2.70;;;;;;;8.62;77.94;94026.56;5090858;28;20036;-50
2022/05/22 03:00:30;;;;;;;5.90;3.30;;;;;;;8.59;78.14;94019.13;5090259;28;20044;-48
2022/05/22 03:02:58;;;;;;;5.03;2.70;;;;;;;8.32;78.30;94005.97;5090678;28;20050;-52
2022/05/22 03:05:27;;;;;;;7.07;2.85;;;;;;;8.26;79.15;94004.06;5089971;28;20039;-52
2022/05/22 03:07:53;;;;;;;4.70;2.90;;;;;;;8.27;79.39;94011.09;5090774;28;20050;-50
2022/05/22 03:10:20;;;;;;;5.15;2.70;;;;;;;8.32;79.20;94007.94;5090565;28;20067;-57
2022/05/22 03:12:47;;;;;;;5.32;2.72;;;;;;;8.36;78.38;94014.19;5089461;28;20043;-47
2022/05/22 03:15:15;;;;;;;5.85;2.50;;;;;;;8.36;78.96;94011.44;5090658;28;20044;-49
2022/05/22 03:17:42;;;;;;;5.72;2.85;;;;;;;8.33;79.08;94010.28;5088824;28;20043;-53
2022/05/22 03:20:10;;;;;;;4.80;2.60;;;;;;;8.11;79.63;94020.53;5089783;28;20067;-55
2022/05/22 03:22:36;;;;;;;4.40;2.88;;;;;;;8.14;79.48;94027.16;5089776;28;20051;-54
2022/05/22 03:25:05;;;;;;;5.97;2.80;;;;;;;8.18;79.17;94025.97;5073103;28;20101;-51
2022/05/22 03:27:32;;;;;;;4.72;2.80;;;;;;;8.17;79.15;94015.44;5069595;28;20070;-50
2022/05/22 03:29:59;;;;;;;4.78;2.80;;;;;;;8.14;79.64;94018.97;5070278;28;20049;-50
2022/05/22 03:32:26;;;;;;;4.77;2.60;;;;;;;8.24;79.53;94020.09;5069373;28;20501;-51
2022/05/22 03:34:55;;;;;;;5.32;2.80;;;;;;;8.31;78.19;94020.03;5069950;28;20045;-49
2022/05/22 03:37:24;;;;;;;4.80;2.67;;;;;;;8.36;78.53;94016.91;5069587;28;20085;-46
2022/05/22 03:39:55;;;;;;;4.93;2.65;;;;;;;8.36;78.14;94014.94;5085354;28;20044;-46
2022/05/22 03:42:24;;;;;;;5.25;3.00;;;;;;;8.34;79.00;94022.00;5070237;28;20058;-50
2022/05/22 03:44:52;;;;;;;5.50;2.73;;;;;;;8.25;78.88;94016.97;5069086;28;20040;-50
2022/05/22 03:47:19;;;;;;;7.22;2.70;;;;;;;8.33;78.11;94010.28;5070024;28;20405;-50
2022/05/22 03:49:46;;;;;;;5.72;3.10;;;;;;;8.44;77.38;94020.41;5069450;28;20105;-48
2022/05/22 03:52:13;;;;;;;6.60;2.85;;;;;;;8.37;77.43;94024.72;5070139;28;20036;-46
2022/05/22 03:54:40;;;;;;;6.13;2.50;;;;;;;8.44;77.85;94025.88;5050194;28;20041;-49
2022/05/22 03:57:10;;;;;;;4.20;2.50;;;;;;;8.56;77.76;94028.16;5049910;28;20045;-49
2022/05/22 03:59:38;;;;;;;5.60;2.58;;;;;;;8.54;77.51;94025.81;5048969;28;20690;-53
2022/05/22 04:02:05;;;;;;;5.78;3.00;;;;;;;8.57;77.03;94005.09;5049643;28;20143;-52
2022/05/22 04:04:33;;;;;;;5.20;3.00;;;;;;;8.60;77.50;94001.56;5048806;28;20053;-48
2022/05/22 04:06:59;;;;;;;4.90;2.80;;;;;;;8.73;76.38;94004.59;5049752;28;20045;-50
2022/05/22 04:09:28;;;;;;;5.43;2.80;;;;;;;8.87;75.66;94007.22;5049202;28;20049;-63
2022/05/22 04:11:55;;;;;;;4.85;2.63;;;;;;;8.98;75.64;94007.94;5049697;28;20037;-52
2022/05/22 04:14:22;;;;;;;4.65;2.70;;;;;;;9.02;75.60;93998.94;5048451;28;20041;-48
2022/05/22 04:16:49;;;;;;;6.18;3.00;;;;;;;8.81;75.60;94006.09;5048409;28;20632;-47
2022/05/22 04:19:15;;;;;;;5.18;2.80;;;;;;;8.89;75.50;94004.09;5049667;28;20079;-55
2022/05/22 04:21:42;;;;;;;4.67;2.90;;;;;;;8.56;76.15;93998.84;5048572;28;20052;-47
2022/05/22 04:26:54;;;;;;;4.72;2.88;;;;;;;8.79;76.08;93989.31;5067541;28;20044;-50
2022/05/22 04:29:24;;;;;;;4.65;2.78;;;;;;;9.06;74.89;93986.00;5071677;28;20044;-52
2022/05/22 04:31:51;;;;;;;26.20;15.05;;;;;;;9.18;74.51;93985.50;5073486;28;20037;-54
2022/05/22 04:34:17;;;;;;;8.17;4.57;;;;;;;9.40;74.39;93994.28;5073372;28;20048;-48
2022/05/22 04:36:44;;;;;;;6.60;3.90;;;;;;;9.59;73.44;93990.19;5072694;28;20044;-48
2022/05/22 04:39:11;;;;;;;4.25;2.90;;;;;;;9.62;73.52;93981.16;5073321;28;20067;-51
2022/05/22 04:41:38;;;;;;;5.88;2.97;;;;;;;9.27;74.56;93982.28;5072532;28;20052;-50
2022/05/22 04:44:05;;;;;;;5.82;3.15;;;;;;;9.36;74.69;93969.66;5073003;28;20075;-50
2022/05/22 04:46:32;;;;;;;4.83;2.90;;;;;;;9.37;74.57;93973.94;5072253;28;20447;-49
2022/05/22 04:48:59;;;;;;;5.95;2.90;;;;;;;9.45;75.01;93971.16;5073224;28;20047;-48
2022/05/22 04:51:26;;;;;;;4.30;2.83;;;;;;;9.76;73.67;93974.75;5072555;28;20045;-50
2022/05/22 04:53:53;;;;;;;5.40;2.90;;;;;;;9.91;73.18;93967.91;5084005;28;20044;-51
2022/05/22 04:56:20;;;;;;;4.45;2.85;;;;;;;9.89;73.29;93966.75;5093085;28;20044;-52
2022/05/22 04:58:47;;;;;;;6.10;2.90;;;;;;;10.08;72.73;93968.88;5091054;28;20057;-53
2022/05/22 05:01:15;;;;;;;4.85;3.00;;;;;;;10.30;72.44;93963.13;5084898;28;20405;-55
2022/05/22 05:03:41;;;;;;;6.45;2.88;;;;;;;10.58;71.85;93968.25;5072627;28;20484;-48
2022/05/22 05:06:09;;;;;;;6.32;2.60;;;;;;;10.59;72.12;93971.75;5073357;28;20049;-51
2022/05/22 05:08:35;;;;;;;4.88;2.95;;;;;;;10.75;71.80;93969.16;5072420;28;20049;-55
2022/05/22 05:11:03;;;;;;;5.03;3.10;;;;;;;10.99;70.95;93955.47;5073255;28;20032;-50
2022/05/22 05:13:30;;;;;;;6.35;2.78;;;;;;;11.31;70.19;93945.91;5072553;28;20048;-64
2022/05/22 05:16:04;;;;;;;4.93;2.80;;;;;;;11.42;69.92;93951.19;5072352;28;20089;-53
2022/05/22 05:18:31;;;;;;;5.13;2.80;;;;;;;11.44;70.27;93946.84;5071987;28;20032;-63
2022/05/22 05:21:01;;;;;;;6.18;3.10;;;;;;;11.66;69.79;93946.44;5072105;28;20417;-50
2022/05/22 05:23:27;;;;;;;4.63;2.90;;;;;;;11.79;69.33;93950.91;5071918;28;20049;-49
2022/05/22 05:25:54;;;;;;;4.82;2.92;;;;;;;11.75;68.80;93949.41;5072295;28;20036;-50
2022/05/22 05:28:21;;;;;;;5.60;3.03;;;;;;;11.82;69.14;93937.50;5072611;28;20052;-48
2022/05/22 05:30:48;;;;;;;5.82;3.13;;;;;;;12.10;68.04;93938.94;5070787;28;20403;-50
2022/05/22 05:33:15;;;;;;;4.25;2.90;;;;;;;14.04;62.65;93945.28;5072511;28;20101;-49
2022/05/22 05:35:42;;;;;;;5.63;2.53;;;;;;;16.40;54.79;93934.09;5071353;28;20059;-49
2022/05/22 05:38:09;;;;;;;4.32;2.75;;;;;;;16.62;54.18;93936.84;5072035;28;20040;-52
2022/05/22 05:40:36;;;;;;;4.20;2.60;;;;;;;18.94;48.39;93930.25;5070233;28;20067;-52
2022/05/22 05:43:03;;;;;;;4.60;2.50;;;;;;;20.47;44.10;93925.81;5072112;28;20039;-56
2022/05/22 05:45:31;;;;;;;5.53;2.60;;;;;;;20.50;43.93;93930.41;5071551;28;20040;-50
2022/05/22 05:47:57;;;;;;;3.87;2.70;;;;;;;21.33;41.64;93929.50;5070536;28;20037;-51
2022/05/22 05:50:26;;;;;;;4.25;2.30;;;;;;;20.77;42.40;93928.63;5071318;28;20459;-49
2022/05/22 05:52:56;;;;;;;3.47;2.30;;;;;;;20.56;41.95;93925.69;5074726;28;20046;-52
2022/05/22 05:55:24;;;;;;;4.90;2.20;;;;;;;21.91;40.15;93926.97;5091860;28;20043;-56
2022/05/22 05:58:10;;;;;;;4.70;2.38;;;;;;;22.60;39.09;93926.47;5092078;28;20048;-50
2022/05/22 06:00:57;;;;;;;4.20;2.37;;;;;;;23.74;36.70;93924.00;5090997;28;20044;-57
2022/05/22 06:03:24;;;;;;;7.15;2.20;;;;;;;23.00;38.79;93930.34;5091523;28;20044;-48
2022/05/22 06:05:51;;;;;;;4.10;2.03;;;;;;;25.00;34.39;93919.03;5089825;28;20036;-51
2022/05/22 06:08:17;;;;;;;3.85;2.25;;;;;;;25.08;34.69;93917.22;5091707;28;20454;-54
2022/05/22 06:10:44;;;;;;;4.15;2.40;;;;;;;23.72;36.81;93904.91;5091311;28;20097;-52
2022/05/22 06:13:11;;;;;;;3.77;2.30;;;;;;;24.90;35.00;93903.72;5090584;28;20047;-51
2022/05/22 06:15:38;;;;;;;4.28;2.00;;;;;;;24.09;36.50;93908.91;5089708;28;20428;-56
2022/05/22 06:18:05;;;;;;;3.58;2.33;;;;;;;24.51;35.68;93905.22;5091550;28;20054;-49
2022/05/22 06:20:31;;;;;;;4.15;2.30;;;;;;;25.10;34.53;93909.06;5091037;28;20045;-52
2022/05/22 06:22:58;;;;;;;3.50;2.20;;;;;;;26.42;32.49;93902.56;5090981;28;20401;-55
2022/05/22 06:25:25;;;;;;;3.20;2.10;;;;;;;27.98;30.28;93896.16;5091020;28;20386;-54
2022/05/22 06:27:52;;;;;;;3.95;2.20;;;;;;;26.74;31.63;93888.84;5091114;28;20480;-55
2022/05/22 06:30:20;;;;;;;5.45;2.10;;;;;;;27.78;29.72;93896.63;5091304;28;20047;-52
2022/05/22 06:32:47;;;;;;;3.60;2.20;;;;;;;26.42;31.79;93891.31;5090361;28;20033;-51
2022/05/22 06:35:15;;;;;;;4.53;2.20;;;;;;;28.02;30.20;93890.25;5091162;28;20522;-51
2022/05/22 06:37:42;;;;;;;3.73;2.20;;;;;;;28.67;29.33;93891.97;5090544;28;20048;-50
2022/05/22 06:40:09;;;;;;;4.15;2.30;;;;;;;27.99;29.53;93896.94;5090779;28;20428;-54
2022/05/22 06:42:42;;;;;;;3.95;2.10;;;;;;;27.72;30.50;93893.13;5090187;28;20051;-51
2022/05/22 06:45:22;;;;;;;3.22;2.00;;;;;;;28.77;29.28;93881.00;5089673;28;20481;-50
2022/05/22 06:47:49;;;;;;;4.75;2.20;;;;;;;29.37;28.36;93873.41;5089952;28;20588;-52
2022/05/22 06:50:25;;;;;;;3.47;2.10;;;;;;;29.89;27.80;93877.59;5090465;28;20105;-51
2022/05/22 06:52:52;;;;;;;5.43;2.00;;;;;;;30.10;27.67;93874.84;5085234;28;20619;-51
2022/05/22 06:55:19;;;;;;;3.35;2.00;;;;;;;31.43;25.50;93871.59;5070471;28;20071;-51
2022/05/22 06:57:46;;;;;;;4.30;2.10;;;;;;;30.75;26.02;93863.19;5069528;28;20040;-52
2022/05/22 07:00:15;;;;;;;3.85;1.90;;;;;;;29.62;27.95;93859.81;5070457;28;20047;-52
2022/05/22 07:02:42;;;;;;;3.60;1.67;;;;;;;29.71;26.03;93864.31;5069433;28;20041;-53
2022/05/22 07:05:10;;;;;;;3.42;1.70;;;;;;;30.94;23.77;93872.28;5070340;28;20050;-51
2022/05/22 07:07:37;;;;;;;3.33;1.65;;;;;;;30.41;23.74;93870.38;5069612;28;20694;-64
2022/05/22 07:10:04;;;;;;;4.00;1.70;;;;;;;29.96;25.31;93876.16;5070284;28;20040;-52
2022/05/22 07:12:31;;;;;;;3.58;1.52;;;;;;;27.90;27.58;93881.16;5069647;28;20045;-50
2022/05/22 07:14:58;;;;;;;3.37;1.43;;;;;;;28.71;26.55;93876.75;5069866;28;20060;-50
2022/05/22 07:17:25;;;;;;;3.22;1.60;;;;;;;30.33;24.63;93868.78;5069727;28;20056;-51
2022/05/22 07:19:54;;;;;;;5.00;1.90;;;;;;;29.11;26.38;93868.44;5069369;28;20041;-50
2022/05/22 07:22:21;;;;;;;5.10;1.90;;;;;;;29.11;26.17;93865.59;5069948;28;20048;-51
2022/05/22 07:24:48;;;;;;;4.28;2.03;;;;;;;30.29;24.45;93860.56;5073130;28;20047;-52
2022/05/22 07:27:16;;;;;;;2.80;1.50;;;;;;;29.16;25.24;93857.06;5070105;28;20044;-56
2022/05/22 07:29:43;;;;;;;3.33;1.45;;;;;;;30.12;24.18;93865.81;5069294;28;20401;-54
2022/05/22 07:32:13;;;;;;;3.03;1.50;;;;;;;31.30;23.02;93857.50;5070020;28;20440;-54
2022/05/22 07:34:42;;;;;;;3.45;1.58;;;;;;;31.69;22.85;93858.53;5069159;28;20044;-56
2022/05/22 07:37:10;;;;;;;4.25;1.75;;;;;;;31.99;22.70;93860.06;5069828;28;20053;-53
2022/05/22 07:39:37;;;;;;;2.27;1.10;;;;;;;29.52;24.12;93861.56;5069406;28;20413;-52
2022/05/22 07:42:06;;;;;;;2.65;1.40;;;;;;;30.97;22.61;93864.75;5069511;28;20044;-52
2022/05/22 07:44:33;;;;;;;3.40;1.25;;;;;;;30.53;22.04;93856.72;5069316;28;20043;-49
2022/05/22 07:47:00;;;;;;;3.00;1.40;;;;;;;30.89;22.98;93861.84;5069646;28;20408;-52
2022/05/22 07:52:12;;;;;;;2.03;1.20;;;;;;;28.84;25.41;93852.16;5049647;28;20515;-57
2022/05/22 07:54:47;;;;;;;2.80;1.40;;;;;;;29.94;23.23;93847.66;5049138;28;20049;-53
2022/05/22 07:57:14;;;;;;;4.68;1.30;;;;;;;27.70;24.92;93854.16;5065255;28;20055;-54
2022/05/22 07:59:41;;;;;;;2.72;1.25;;;;;;;29.36;23.81;93837.94;5064424;28;20508;-51
2022/05/22 08:02:12;;;;;;;2.38;1.20;;;;;;;30.94;23.08;93834.69;5048460;28;20112;-54
2022/05/22 08:04:43;;;;;;;2.33;1.20;;;;;;;30.83;23.39;93835.69;5051226;28;20101;-52
2022/05/22 08:07:11;;;;;;;3.05;1.30;;;;;;;30.77;23.10;93827.34;5053733;28;20048;-58
2022/05/22 08:09:38;;;;;;;2.78;1.20;;;;;;;30.45;24.10;93827.56;5053192;28;20109;-52
2022/05/22 08:12:05;;;;;;;3.42;1.50;;;;;;;28.66;26.01;93841.66;5051997;28;20044;-53
2022/05/22 08:14:32;;;;;;;2.58;1.40;;;;;;;28.13;26.29;93830.06;5053168;28;20519;-52
2022/05/22 08:17:01;;;;;;;2.70;1.27;;;;;;;26.35;28.31;93839.19;5053344;28;20037;-51
2022/05/22 08:19:28;;;;;;;5.00;1.50;;;;;;;26.30;29.08;93837.19;5053263;28;20049;-52
2022/05/22 08:21:55;;;;;;;2.97;1.30;;;;;;;26.60;30.00;93828.03;5053045;28;20374;-53
2022/05/22 08:24:22;;;;;;;3.00;1.60;;;;;;;26.69;29.60;93828.47;5043570;28;20482;-53
2022/05/22 08:26:48;;;;;;;3.47;1.40;;;;;;;25.35;31.00;93824.28;5072490;28;20894;-51
2022/05/22 08:29:15;;;;;;;2.73;1.40;;;;;;;24.75;31.89;93813.38;5073435;28;20071;-50
2022/05/22 08:31:43;;;;;;;2.53;1.30;;;;;;;25.06;32.42;93827.13;5084639;28;20046;-54
2022/05/22 08:34:10;;;;;;;4.50;1.40;;;;;;;26.06;30.18;93830.16;5094048;28;20048;-49
2022/05/22 08:36:37;;;;;;;3.35;1.50;;;;;;;25.93;30.15;93823.59;5092900;28;20391;-57
2022/05/22 08:39:05;;;;;;;3.20;1.40;;;;;;;26.64;30.22;93817.25;5093395;28;20040;-54
2022/05/22 08:41:41;;;;;;;3.33;1.50;;;;;;;26.56;29.41;93819.88;5093021;28;20047;-48
2022/05/22 08:44:14;;;;;;;2.72;1.20;;;;;;;28.42;26.78;93819.94;5093334;28;20051;-51
2022/05/22 08:47:04;;;;;;;2.85;1.30;;;;;;;29.56;24.82;93813.94;5092581;28;20040;-52
2022/05/22 08:49:37;;;;;;;3.55;1.35;;;;;;;29.96;24.25;93822.41;5092870;28;20435;-51
2022/05/22 08:52:12;;;;;;;4.30;1.35;;;;;;;28.97;25.55;93816.78;5093117;28;20040;-53
2022/05/22 08:54:45;;;;;;;2.97;1.33;;;;;;;29.50;25.10;93814.06;5092747;28;20051;-49
2022/05/22 09:00:32;;;;;;;2.40;1.20;;;;;;;30.83;23.50;93818.69;5071417;28;20489;-52
2022/05/22 09:03:04;;;;;;;3.72;1.30;;;;;;;30.03;24.54;93808.38;5072295;28;20149;-56
2022/05/22 09:05:33;;;;;;;3.22;1.30;;;;;;;29.96;24.57;93802.59;5072150;28;20047;-51
2022/05/22 09:08:07;;;;;;;2.93;1.20;;;;;;;28.41;25.56;93805.06;5092473;28;20047;-55
2022/05/22 09:10:54;;;;;;;2.60;1.50;;;;;;;26.95;27.73;93803.97;5092519;28;20055;-49
2022/05/22 09:13:41;;;;;;;3.45;1.40;;;;;;;27.05;27.92;93811.53;5092964;28;20382;-53
2022/05/22 09:16:20;;;;;;;3.35;1.40;;;;;;;28.64;25.78;93796.25;5091723;28;20055;-48
2022/05/22 09:19:05;;;;;;;2.83;1.60;;;;;;;27.44;27.52;93803.97;5092200;28;20043;-55
2022/05/22 09:22:32;;;;;;;3.00;1.40;;;;;;;30.24;24.21;93796.34;5091694;28;20044;-49
2022/05/22 09:25:08;;;;;;;3.30;1.10;;;;;;;31.69;22.06;93798.97;4998954;28;21943;-57
2022/05/22 09:27:48;;;;;;;3.97;1.30;;;;;;;32.73;21.41;93776.31;4990000;28;20054;-58
2022/05/22 09:30:36;;;;;;;2.60;1.23;;;;;;;32.27;22.46;93779.75;5061542;28;20044;-52
2022/05/22 09:33:18;;;;;;;3.80;1.35;;;;;;;30.85;22.89;93777.16;5091424;28;20812;-50
2022/05/22 09:36:22;;;;;;;2.63;1.30;;;;;;;29.09;25.07;93775.72;5092195;28;20100;-53
2022/05/22 09:39:27;;;;;;;3.17;1.30;;;;;;;29.98;24.28;93764.00;5091181;28;21513;-52
2022/05/22 09:42:19;;;;;;;2.80;1.17;;;;;;;31.40;22.96;93769.84;5091024;28;20546;-53
2022/05/22 09:45:09;;;;;;;3.35;1.20;;;;;;;31.79;22.36;93763.09;5091912;28;20040;-63
2022/05/22 09:47:54;;;;;;;4.60;2.90;;;;;;;30.07;24.03;93757.09;5091637;28;20065;-58
2022/05/22 09:50:51;;;;;;;2.80;1.30;;;;;;;30.90;22.82;93752.84;5090477;28;20111;-56
2022/05/22 09:53:26;;;;;;;3.60;1.35;;;;;;;29.67;23.42;93740.19;5083306;28;20160;-55
2022/05/22 09:55:59;;;;;;;3.65;1.42;;;;;;;30.65;23.12;93729.78;5069219;28;20066;-53
2022/05/22 09:58:49;;;;;;;2.78;1.20;;;;;;;29.91;23.36;93721.47;5071373;28;20047;-52
2022/05/22 10:01:23;;;;;;;3.03;1.17;;;;;;;32.12;20.49;93725.78;5071743;28;20046;-48
2022/05/22 10:03:53;;;;;;;2.97;1.20;;;;;;;28.62;24.35;93731.09;5069113;28;20079;-54
2022/05/22 10:06:25;;;;;;;3.08;1.58;;;;;;;29.02;23.82;93736.81;5071620;28;20416;-51
2022/05/22 10:09:16;;;;;;;3.65;1.40;;;;;;;30.97;21.67;93735.16;5070261;28;20647;-55
2022/05/22 10:11:54;;;;;;;2.50;1.40;;;;;;;30.91;21.51;93745.88;5071089;28;21087;-54
2022/05/22 10:15:11;;;;;;;3.22;1.30;;;;;;;30.96;21.25;93741.38;5070627;28;20376;-53
2022/05/22 10:17:38;;;;;;;2.60;1.27;;;;;;;26.96;26.60;93741.44;5070874;28;20044;-52
2022/05/22 10:20:13;;;;;;;2.90;1.40;;;;;;;27.28;25.62;93729.63;5070665;28;20067;-53
2022/05/22 10:23:06;;;;;;;2.63;1.20;;;;;;;29.72;21.76;93732.91;5070753;28;20105;-55
2022/05/22 10:25:41;;;;;;;2.13;1.30;;;;;;;29.80;21.46;93728.09;5050945;28;20067;-51
2022/05/22 10:28:22;;;;;;;2.85;1.30;;;;;;;30.29;21.83;93721.09;5050936;28;20045;-53
2022/05/22 10:30:55;;;;;;;2.93;1.20;;;;;;;31.25;21.65;93722.31;5070259;28;21681;-52
2022/05/22 10:33:31;;;;;;;2.30;1.10;;;;;;;32.23;19.92;93714.81;5071054;28;20044;-55
2022/05/22 10:36:02;;;;;;;2.20;1.00;;;;;;;29.62;22.32;93713.56;5065026;28;21550;-51
2022/05/22 10:38:36;;;;;;;2.78;1.20;;;;;;;27.99;24.09;93716.41;5050429;28;20068;-53
2022/05/22 10:44:20;;;;;;;2.53;1.40;;;;;;;29.12;22.48;93697.59;5054154;28;20044;-50
2022/05/22 10:46:52;;;;;;;2.65;1.20;;;;;;;29.74;22.62;93699.19;5050375;28;20052;-53
2022/05/22 10:49:24;;;;;;;2.58;1.20;;;;;;;29.28;22.55;93694.47;5050623;28;20045;-57
2022/05/22 10:52:00;;;;;;;2.53;1.10;;;;;;;29.20;22.31;93681.53;5056015;28;20663;-62
2022/05/22 10:54:44;;;;;;;2.85;1.33;;;;;;;28.44;22.79;93679.78;5085098;28;20044;-50
2022/05/22 10:57:15;;;;;;;2.60;1.10;;;;;;;27.20;23.95;93683.59;5070667;28;20055;-50
2022/05/22 10:59:42;;;;;;;3.13;1.30;;;;;;;26.74;24.55;93685.38;5070123;28;20515;-47
2022/05/22 11:02:24;;;;;;;2.42;1.20;;;;;;;28.01;23.19;93689.19;5070317;28;20049;-54
2022/05/22 11:04:53;;;;;;;2.70;1.30;;;;;;;28.59;22.71;93673.63;5081533;28;20673;-47
2022/05/22 11:07:45;;;;;;;3.35;1.40;;;;;;;28.26;24.07;93672.88;5090721;28;20044;-49
2022/05/22 11:10:33;;;;;;;4.73;1.50;;;;;;;27.87;24.86;93670.72;5074181;28;20431;-51
2022/05/22 11:13:09;;;;;;;2.70;1.50;;;;;;;28.63;25.21;93668.44;5076068;28;20774;-51
2022/05/22 11:15:39;;;;;;;2.55;1.42;;;;;;;27.83;25.64;93668.16;5069694;28;20119;-51
2022/05/22 11:18:07;;;;;;;2.78;1.42;;;;;;;27.62;25.78;93661.53;5070251;28;20097;-48
2022/05/22 11:20:36;;;;;;;3.15;1.60;;;;;;;27.61;26.50;93660.78;5069635;28;20394;-51
2022/05/22 11:23:12;;;;;;;2.97;1.50;;;;;;;26.19;28.02;93669.25;5069995;28;20051;-48
2022/05/22 11:26:02;;;;;;;2.53;1.30;;;;;;;26.26;27.84;93660.25;5069394;28;20055;-49
2022/05/22 11:28:47;;;;;;;2.90;1.48;;;;;;;26.48;29.00;93661.28;5069664;28;20052;-50
2022/05/22 11:31:25;;;;;;;2.90;1.42;;;;;;;26.47;29.63;93654.16;5069827;28;20052;-53
2022/05/22 11:34:12;;;;;;;2.95;1.70;;;;;;;26.30;30.53;93655.09;5069054;28;20040;-50
2022/05/22 11:36:42;;;;;;;3.13;1.60;;;;;;;25.97;31.03;93646.94;5069436;28;20044;-48
2022/05/22 11:39:46;;;;;;;3.28;1.50;;;;;;;26.83;29.47;93640.00;5068633;28;20408;-48
2022/05/22 11:42:43;;;;;;;3.63;1.70;;;;;;;25.57;31.07;93646.41;5068689;28;20160;-49
2022/05/22 11:45:37;;;;;;;4.95;1.80;;;;;;;25.76;31.10;93643.75;5068641;28;20932;-50
2022/05/22 11:48:24;;;;;;;3.58;1.70;;;;;;;26.47;30.80;93623.97;5068549;28;20731;-57
2022/05/22 11:50:56;;;;;;;3.27;1.80;;;;;;;25.75;30.85;93623.28;5068282;28;20743;-48
2022/05/22 11:53:47;;;;;;;3.10;1.60;;;;;;;26.18;31.28;93627.56;5076492;28;20476;-48
2022/05/22 11:56:56;;;;;;;2.53;1.60;;;;;;;25.56;32.68;93626.00;5089949;28;20409;-50
2022/05/22 11:59:32;;;;;;;3.17;1.50;;;;;;;25.56;31.99;93625.25;5081031;28;20075;-52
2022/05/22 12:02:26;;;;;;;3.13;1.80;;;;;;;26.93;29.50;93615.06;5088634;28;20596;-52
2022/05/22 12:05:16;;;;;;;3.50;1.80;;;;;;;25.97;30.88;93616.75;5088876;28;20178;-53
2022/05/22 12:08:05;;;;;;;4.28;1.60;;;;;;;26.45;31.19;93606.84;5089421;28;20048;-56
2022/05/22 12:10:56;;;;;;;3.53;1.75;;;;;;;26.06;30.75;93593.19;5089404;28;20043;-50
2022/05/22 12:13:29;;;;;;;3.55;1.70;;;;;;;26.38;30.11;93593.38;5089279;28;20052;-50